地図

経路データ

SID SEASON NUMBER BASIN SUBBASIN NAME ISO_TIME NATURE LAT LON WMO_WIND WMO_PRES WMO_AGENCY TRACK_TYPE DIST2LAND LANDFALL IFLAG USA_AGENCY USA_ATCF_ID USA_LAT USA_LON USA_RECORD USA_STATUS USA_WIND USA_PRES USA_SSHS USA_R34_NE USA_R34_SE USA_R34_SW USA_R34_NW USA_R50_NE USA_R50_SE USA_R50_SW USA_R50_NW USA_R64_NE USA_R64_SE USA_R64_SW USA_R64_NW USA_POCI USA_ROCI USA_RMW USA_EYE TOKYO_LAT TOKYO_LON TOKYO_GRADE TOKYO_WIND TOKYO_PRES TOKYO_R50_DIR TOKYO_R50_LONG TOKYO_R50_SHORT TOKYO_R30_DIR TOKYO_R30_LONG TOKYO_R30_SHORT TOKYO_LAND CMA_LAT CMA_LON CMA_CAT CMA_WIND CMA_PRES HKO_LAT HKO_LON HKO_CAT HKO_WIND HKO_PRES NEWDELHI_LAT NEWDELHI_LON NEWDELHI_GRADE NEWDELHI_WIND NEWDELHI_PRES NEWDELHI_CI NEWDELHI_DP NEWDELHI_POCI REUNION_LAT REUNION_LON REUNION_TYPE REUNION_WIND REUNION_PRES REUNION_TNUM REUNION_CI REUNION_RMW REUNION_R34_NE REUNION_R34_SE REUNION_R34_SW REUNION_R34_NW REUNION_R50_NE REUNION_R50_SE REUNION_R50_SW REUNION_R50_NW REUNION_R64_NE REUNION_R64_SE REUNION_R64_SW REUNION_R64_NW BOM_LAT BOM_LON BOM_TYPE BOM_WIND BOM_PRES BOM_TNUM BOM_CI BOM_RMW BOM_R34_NE BOM_R34_SE BOM_R34_SW BOM_R34_NW BOM_R50_NE BOM_R50_SE BOM_R50_SW BOM_R50_NW BOM_R64_NE BOM_R64_SE BOM_R64_SW BOM_R64_NW BOM_ROCI BOM_POCI BOM_EYE BOM_POS_METHOD BOM_PRES_METHOD NADI_LAT NADI_LON NADI_CAT NADI_WIND NADI_PRES WELLINGTON_LAT WELLINGTON_LON WELLINGTON_WIND WELLINGTON_PRES DS824_LAT DS824_LON DS824_STAGE DS824_WIND DS824_PRES TD9636_LAT TD9636_LON TD9636_STAGE TD9636_WIND TD9636_PRES TD9635_LAT TD9635_LON TD9635_WIND TD9635_PRES TD9635_ROCI NEUMANN_LAT NEUMANN_LON NEUMANN_CLASS NEUMANN_WIND NEUMANN_PRES MLC_LAT MLC_LON MLC_CLASS MLC_WIND MLC_PRES USA_GUST BOM_GUST BOM_GUST_PER REUNION_GUST REUNION_GUST_PER USA_SEAHGT USA_SEARAD_NE USA_SEARAD_SE USA_SEARAD_SW USA_SEARAD_NW STORM_SPEED STORM_DIR
1912130S10069 1912 23 SI MM NOT_NAMED 1912-05-09 00:00:00 TS -9.90000 68.7000 main 1641 1610 _________O____ -1 -9.90000 68.7000 TC 25 6 217
1912130S10069 1912 23 SI MM NOT_NAMED 1912-05-09 03:00:00 TS -10.1500 68.5076 main 1602 1571 _________P____ -1 -10.1500 68.5076 TC 25 6 218
1912130S10069 1912 23 SI MM NOT_NAMED 1912-05-09 06:00:00 TS -10.4000 68.3000 main 1571 1539 _________O____ -1 -10.4000 68.3000 TC 25 7 221
1912130S10069 1912 23 SI MM NOT_NAMED 1912-05-09 09:00:00 TS -10.6500 68.0650 main 1539 1493 _________P____ -1 -10.6500 68.0650 TC 25 7 225
1912130S10069 1912 23 SI MM NOT_NAMED 1912-05-09 12:00:00 TS -10.9000 67.8000 main 1493 1454 _________O____ -1 -10.9000 67.8000 TC 25 8 228
1912130S10069 1912 23 SI MM NOT_NAMED 1912-05-09 15:00:00 TS -11.1500 67.5000 main 1446 1407 _________P____ -1 -11.1500 67.5000 TC 25 8 230
1912130S10069 1912 23 SI MM NOT_NAMED 1912-05-09 18:00:00 TS -11.4000 67.2000 main 1407 1368 _________O____ -1 -11.4000 67.2000 TC 25 8 228
1912130S10069 1912 23 SI MM NOT_NAMED 1912-05-09 21:00:00 TS -11.6500 66.9275 main 1368 1328 _________P____ -1 -11.6500 66.9275 TC 25 7 224
1912130S10069 1912 23 SI MM NOT_NAMED 1912-05-10 00:00:00 TS -11.9000 66.7000 main 1328 1297 _________O____ -1 -11.9000 66.7000 TC 25 6 219
1912130S10069 1912 23 SI MM NOT_NAMED 1912-05-10 03:00:00 TS -12.1425 66.5200 main 1297 1266 _________P____ -1 -12.1425 66.5200 TC 25 6 210
1912130S10069 1912 23 SI MM NOT_NAMED 1912-05-10 06:00:00 TS -12.4000 66.4000 main 1266 1235 _________O____ -1 -12.4000 66.4000 TC 25 6 198
1912130S10069 1912 23 SI MM NOT_NAMED 1912-05-10 09:00:00 TS -12.7075 66.3350 main 1235 1212 _________P____ -1 -12.7075 66.3350 TC 25 6 189
1912130S10069 1912 23 SI MM NOT_NAMED 1912-05-10 12:00:00 TS -13.0000 66.3000 main 1212 1189 _________O____ -1 -13.0000 66.3000 TC 25 5 190
1912130S10069 1912 23 SI MM NOT_NAMED 1912-05-10 15:00:00 TS -13.2150 66.2425 main 1189 1174 _________P____ -1 -13.2150 66.2425 TC 25 4 193
1912130S10069 1912 23 SI MM NOT_NAMED 1912-05-10 18:00:00 TS -13.4000 66.2000 main 1174 1160 _________O____ -1 -13.4000 66.2000 TC 25 4 189
1912130S10069 1912 23 SI MM NOT_NAMED 1912-05-10 21:00:00 TS -13.5625 66.1925 main 1160 1146 _________P____ -1 -13.5625 66.1925 TC 25 4 0
1912130S10069 1912 23 SI MM NOT_NAMED 1912-05-11 00:00:00 TS -13.8000 66.2000 main 1146 1118 _________O____ -1 -13.8000 66.2000 TC 25 7 0
1912130S10069 1912 23 SI MM NOT_NAMED 1912-05-11 03:00:00 TS -14.2200 66.1925 main 1118 1085 _________P____ -1 -14.2200 66.1925 TC 25 9 0
1912130S10069 1912 23 SI MM NOT_NAMED 1912-05-11 06:00:00 TS -14.7000 66.2000 main 1085 1060 _________O____ -1 -14.7000 66.2000 TC 25 9 178
1912130S10069 1912 23 SI MM NOT_NAMED 1912-05-11 09:00:00 TS -15.1075 66.2350 main 1060 1045 _________P____ -1 -15.1075 66.2350 TC 25 8 173
1912130S10069 1912 23 SI MM NOT_NAMED 1912-05-11 12:00:00 TS -15.5000 66.3000 main 1045 1032 _________O____ -1 -15.5000 66.3000 TC 25 8 170
1912130S10069 1912 23 SI MM NOT_NAMED 1912-05-11 15:00:00 TS -15.9075 66.3850 main 1032 1021 _________P____ -1 -15.9075 66.3850 TC 25 8 166
1912130S10069 1912 23 SI MM NOT_NAMED 1912-05-11 18:00:00 TS -16.3000 66.5000 main 1021 1016 _________O____ -1 -16.3000 66.5000 TC 25 8 162
1912130S10069 1912 23 SI MM NOT_NAMED 1912-05-11 21:00:00 TS -16.6575 66.6425 main 1011 1011 _________P____ -1 -16.6575 66.6425 TC 25 8 158
1912130S10069 1912 23 SI MM NOT_NAMED 1912-05-12 00:00:00 TS -17.0000 66.8000 main 1017 1013 _________O____ -1 -17.0000 66.8000 TC 25 8 158
1912130S10069 1912 23 SI MM NOT_NAMED 1912-05-12 03:00:00 TS -17.3575 66.9426 main 1010 1010 _________P____ -1 -17.3575 66.9426 TC 25 8 158
1912130S10069 1912 23 SI MM NOT_NAMED 1912-05-12 06:00:00 TS -17.7000 67.1000 main 1019 1016 _________O____ -1 -17.7000 67.1000 TC 25 7 153
1912130S10069 1912 23 SI MM NOT_NAMED 1912-05-12 09:00:00 TS -18.0150 67.2925 main 1030 1027 _________P____ -1 -18.0150 67.2925 TC 25 7 148
1912130S10069 1912 23 SI MM NOT_NAMED 1912-05-12 12:00:00 TS -18.3000 67.5000 main 1042 1039 _________O____ -1 -18.3000 67.5000 TC 25 7 145
1912130S10069 1912 23 SI MM NOT_NAMED 1912-05-12 15:00:00 TS -18.5650 67.6926 main 1055 1055 _________P____ -1 -18.5650 67.6926 TC 25 6 143
1912130S10069 1912 23 SI MM NOT_NAMED 1912-05-12 18:00:00 TS -18.8000 67.9000 main 1071 1071 _________O____ -1 -18.8000 67.9000 TC 25 6 136
1912130S10069 1912 23 SI MM NOT_NAMED 1912-05-12 21:00:00 TS -19.0000 68.1351 main 1088 1088 _________P____ -1 -19.0000 68.1351 TC 25 6 130
1912130S10069 1912 23 SI MM NOT_NAMED 1912-05-13 00:00:00 TS -19.2000 68.4000 main 1115 1115 _________O____ -1 -19.2000 68.4000 TC 25 7 130
1912130S10069 1912 23 SI MM NOT_NAMED 1912-05-13 03:00:00 TS -19.4424 68.6851 main 1144 1142 _________P____ -1 -19.4424 68.6851 TC 25 8 131
1912130S10069 1912 23 SI MM NOT_NAMED 1912-05-13 06:00:00 TS -19.7000 69.0000 main 1171 1171 _________O____ -1 -19.7000 69.0000 TC 25 8 130
1912130S10069 1912 23 SI MM NOT_NAMED 1912-05-13 09:00:00 TS -19.9575 69.3425 main 1200 1200 _________P____ -1 -19.9575 69.3425 TC 25 8 127
1912130S10069 1912 23 SI MM NOT_NAMED 1912-05-13 12:00:00 TS -20.2000 69.7000 main 1241 1241 _________O____ -1 -20.2000 69.7000 TC 25 8 125
1912130S10069 1912 23 SI MM NOT_NAMED 1912-05-13 15:00:00 TS -20.4149 70.0501 main 1281 1281 _________P____ -1 -20.4149 70.0501 TC 25 8 121
1912130S10069 1912 23 SI MM NOT_NAMED 1912-05-13 18:00:00 TS -20.6000 70.4000 main 1312 1312 _________O____ -1 -20.6000 70.4000 TC 25 7 118
1912130S10069 1912 23 SI MM NOT_NAMED 1912-05-13 21:00:00 TS -20.7498 70.7278 main 1343 1343 _________P____ -1 -20.7498 70.7278 TC 25 7 115
1912130S10069 1912 23 SI MM NOT_NAMED 1912-05-14 00:00:00 TS -20.9000 71.1000 main 1385 1385 _________O____ -1 -20.9000 71.1000 TC 25 9 114
1912130S10069 1912 23 SI MM NOT_NAMED 1912-05-14 03:00:00 TS -21.1000 71.5699 main 1437 1437 _________P____ -1 -21.1000 71.5699 TC 25 10 113
1912130S10069 1912 23 SI MM NOT_NAMED 1912-05-14 06:00:00 TS -21.3000 72.1000 main 1489 1489 _________O____ -1 -21.3000 72.1000 TC 25 11 109
1912130S10069 1912 23 SI MM NOT_NAMED 1912-05-14 09:00:00 TS -21.4498 72.6353 main 1541 1541 _________P____ -1 -21.4498 72.6353 TC 25 11 106
1912130S10069 1912 23 SI MM NOT_NAMED 1912-05-14 12:00:00 TS -21.6000 73.2000 main 1604 1604 _________O____ -1 -21.6000 73.2000 TC 25 11 108
1912130S10069 1912 23 SI MM NOT_NAMED 1912-05-14 15:00:00 TS -21.7924 73.8000 main 1667 1667 _________P____ -1 -21.7924 73.8000 TC 25 12 110
1912130S10069 1912 23 SI MM NOT_NAMED 1912-05-14 18:00:00 TS -22.0000 74.4000 main 1730 1730 _________O____ -1 -22.0000 74.4000 TC 25 12 111
1912130S10069 1912 23 SI MM NOT_NAMED 1912-05-14 21:00:00 TS -22.2028 74.9623 main 1793 1793 _________P____ -1 -22.2028 74.9623 TC 25 11 111
1912130S10069 1912 23 SI MM NOT_NAMED 1912-05-15 00:00:00 TS -22.4000 75.5000 main 1846 _________O____ -1 -22.4000 75.5000 TC 25 11 112

IBTrACS Databaseについて

本データベースは、米国NOAAが公開する1842年以降の世界の熱帯低気圧のベストトラックデータアーカイブInternational Best Track Archive for Climate Stewardship (IBTrACS)を、ウェブで閲覧しやすい形式に変換したものです。

最終更新日:2021-10-21